Strona główna
METAR-TAF:

METAR-TAF

Lotnisko :

Port lotniczy Kassel-Calden

Kassel, Niemcy

Szerokość geograficzna: 51-24N, Długość geograficzna: 009-23E, wysokość: 277 m

Aktualna obserwacja pogody

Raport powstał 4 godziny i 40 minut temu, godzina 18:20 UTC
Wiatr 6 kt od północny wschód
Temperatura 16°C
Wilgotność 45%
Ciśnienie 1023 hPa
Widzialność 10 km lub więcej
Brak chmur poniżej 1500 m i brak chmur cumulonimbus

METAR: EDVK 301820Z 04006KT CAVOK 16/04 Q1023

czas: 01:00 (23:00 UTC)

Prognoza

Raport powstał 6 godziny i 0 minut temu, godzina 17:00 UTC
Prognoza ważna od 30 godzina 18 UTC do 31 godzina 03 UTC
Wiatr 8 kt od północny wschód
Widzialność 10 km lub więcej
Brak chmur poniżej 1500 m i brak chmur cumulonimbus
Stopniowe zmiany
od 30 godzina 19 UTC do 30 godzina 21 UTC
Wiatr 3 kt od północ

TAF: EDVK 301700Z 3018/3103 04008KT CAVOK BECMG 3019/3021 35003KT

Obserwacja i prognoza pogody dla ponad 4000 lotnisk (raport METAR i TAF).

Dostępne stacje oznaczono żółtymi i czerwonymi punktami na mapie.

Najedź kursorem aby zobaczyć nazwę stacji.

Kliknij aby zobaczyć obserwacje i prognozy pogody.

Aby zmienić mapę: kliknij na zielony przycisk z czarnym krzyżykiem, aby powiększyć; na zielony przycisk z myślnikiem, aby pomniejszyć; na zielone strzałki, aby przejść do map sąsiednich.


METAR-TAF: